sensor_id;sensor_type;location;lat;lon;timestamp;pressure;altitude;pressure_sealevel;temperature;humidity
69316;BME280;56445;43.552;5.034;2022-09-09T00:00:24;101385.63;;;37.93;23.72
69316;BME280;56445;43.552;5.034;2022-09-09T00:03:04;101377.91;;;37.86;23.85
69316;BME280;56445;43.552;5.034;2022-09-09T00:08:42;101383.56;;;37.86;23.83
69316;BME280;56445;43.552;5.034;2022-09-09T00:11:13;101390.06;;;37.94;23.87
69316;BME280;56445;43.552;5.034;2022-09-09T00:13:50;101367.41;;;37.83;24.01
69316;BME280;56445;43.552;5.034;2022-09-09T00:16:24;101380.38;;;37.91;23.97
69316;BME280;56445;43.552;5.034;2022-09-09T00:19:08;101380.38;;;37.91;23.64
69316;BME280;56445;43.552;5.034;2022-09-09T00:21:53;101363.75;;;37.79;23.86
69316;BME280;56445;43.552;5.034;2022-09-09T00:24:46;101377.91;;;37.86;23.58
69316;BME280;56445;43.552;5.034;2022-09-09T00:27:59;101370.59;;;37.81;23.71
69316;BME280;56445;43.552;5.034;2022-09-09T00:30:26;101365.66;;;37.71;23.71
69316;BME280;56445;43.552;5.034;2022-09-09T00:33:08;101384.31;;;37.83;24.07
69316;BME280;56445;43.552;5.034;2022-09-09T00:35:49;101366.88;;;37.74;23.69
69316;BME280;56445;43.552;5.034;2022-09-09T00:38:24;101375.06;;;37.82;23.62
69316;BME280;56445;43.552;5.034;2022-09-09T00:41:21;101377.38;;;37.77;23.67
69316;BME280;56445;43.552;5.034;2022-09-09T00:56:15;101352.41;;;37.45;24.10
69316;BME280;56445;43.552;5.034;2022-09-09T00:59:52;101363.88;;;37.59;23.94
69316;BME280;56445;43.552;5.034;2022-09-09T01:03:20;101324.84;;;37.31;23.94
69316;BME280;56445;43.552;5.034;2022-09-09T06:02:00;101383.53;;;36.21;24.23
69316;BME280;56445;43.552;5.034;2022-09-09T06:04:40;101418.28;;;36.51;24.20
69316;BME280;56445;43.552;5.034;2022-09-09T06:07:40;101403.31;;;36.47;24.33
69316;BME280;56445;43.552;5.034;2022-09-09T06:10:46;101420.03;;;36.60;24.17
69316;BME280;56445;43.552;5.034;2022-09-09T06:17:20;101422.25;;;36.70;24.41
69316;BME280;56445;43.552;5.034;2022-09-09T06:26:46;101415.72;;;36.85;24.32
69316;BME280;56445;43.552;5.034;2022-09-09T06:29:50;101407.28;;;36.85;24.39
69316;BME280;56445;43.552;5.034;2022-09-09T06:32:28;101415.38;;;36.90;24.15
69316;BME280;56445;43.552;5.034;2022-09-09T06:34:56;101429.59;;;36.98;24.25
69316;BME280;56445;43.552;5.034;2022-09-09T06:37:26;101401.25;;;36.87;23.96
69316;BME280;56445;43.552;5.034;2022-09-09T06:40:25;101454.09;;;37.20;24.50
69316;BME280;56445;43.552;5.034;2022-09-09T06:43:00;101429.75;;;37.08;24.43
69316;BME280;56445;43.552;5.034;2022-09-09T06:45:28;101449.31;;;37.21;23.98
69316;BME280;56445;43.552;5.034;2022-09-09T06:47:55;101456.75;;;37.33;24.16
69316;BME280;56445;43.552;5.034;2022-09-09T06:50:23;101451.97;;;37.37;24.13
69316;BME280;56445;43.552;5.034;2022-09-09T06:52:50;101446.78;;;37.39;24.46
69316;BME280;56445;43.552;5.034;2022-09-09T06:55:18;101449.69;;;37.46;24.48
69316;BME280;56445;43.552;5.034;2022-09-09T06:57:46;101451.41;;;37.50;24.17
69316;BME280;56445;43.552;5.034;2022-09-09T07:00:13;101445.78;;;37.54;24.65
69316;BME280;56445;43.552;5.034;2022-09-09T07:02:40;101449.88;;;37.57;24.10
69316;BME280;56445;43.552;5.034;2022-09-09T07:05:08;101444.94;;;37.50;24.39
69316;BME280;56445;43.552;5.034;2022-09-09T07:07:35;101459.59;;;37.59;24.16
69316;BME280;56445;43.552;5.034;2022-09-09T07:10:03;101435.25;;;37.47;24.57
69316;BME280;56445;43.552;5.034;2022-09-09T07:12:31;101453.22;;;37.62;24.03
69316;BME280;56445;43.552;5.034;2022-09-09T07:14:58;101432.56;;;37.55;24.32
69316;BME280;56445;43.552;5.034;2022-09-09T07:17:25;101460.50;;;37.67;24.36
69316;BME280;56445;43.552;5.034;2022-09-09T07:19:54;101450.69;;;37.57;24.15
69316;BME280;56445;43.552;5.034;2022-09-09T07:22:23;101449.06;;;37.56;24.02
69316;BME280;56445;43.552;5.034;2022-09-09T07:24:51;101446.63;;;37.55;24.27
69316;BME280;56445;43.552;5.034;2022-09-09T07:27:18;101464.06;;;37.64;24.49
69316;BME280;56445;43.552;5.034;2022-09-09T07:29:45;101466.88;;;37.64;24.07
69316;BME280;56445;43.552;5.034;2022-09-09T07:32:13;101460.03;;;37.61;24.06
69316;BME280;56445;43.552;5.034;2022-09-09T07:34:40;101456.03;;;37.62;24.51
69316;BME280;56445;43.552;5.034;2022-09-09T07:37:07;101459.31;;;37.68;24.20
69316;BME280;56445;43.552;5.034;2022-09-09T07:39:35;101464.69;;;37.77;24.24
69316;BME280;56445;43.552;5.034;2022-09-09T07:42:02;101471.22;;;37.84;24.51
69316;BME280;56445;43.552;5.034;2022-09-09T07:44:29;101481.84;;;37.95;24.59
69316;BME280;56445;43.552;5.034;2022-09-09T07:46:56;101484.28;;;37.96;24.23
69316;BME280;56445;43.552;5.034;2022-09-09T07:49:23;101486.66;;;37.94;24.43
69316;BME280;56445;43.552;5.034;2022-09-09T07:51:58;101492.53;;;38.08;24.30
69316;BME280;56445;43.552;5.034;2022-09-09T07:54:25;101499.00;;;38.13;24.23
69316;BME280;56445;43.552;5.034;2022-09-09T07:56:53;101486.94;;;38.12;24.45
69316;BME280;56445;43.552;5.034;2022-09-09T07:59:20;101505.25;;;38.25;24.46
69316;BME280;56445;43.552;5.034;2022-09-09T08:01:49;101485.88;;;38.24;24.64
69316;BME280;56445;43.552;5.034;2022-09-09T08:04:23;101508.63;;;38.38;24.58
69316;BME280;56445;43.552;5.034;2022-09-09T08:06:59;101505.88;;;38.45;24.20
69316;BME280;56445;43.552;5.034;2022-09-09T08:09:27;101515.63;;;38.52;24.46
69316;BME280;56445;43.552;5.034;2022-09-09T08:11:59;101508.34;;;38.51;24.38
69316;BME280;56445;43.552;5.034;2022-09-09T08:14:28;101503.13;;;38.49;24.37
69316;BME280;56445;43.552;5.034;2022-09-09T08:16:56;101524.72;;;38.68;24.26
69316;BME280;56445;43.552;5.034;2022-09-09T08:19:24;101511.81;;;38.67;24.27
69316;BME280;56445;43.552;5.034;2022-09-09T08:21:51;101524.34;;;38.70;24.23
69316;BME280;56445;43.552;5.034;2022-09-09T08:24:18;101540.50;;;38.76;24.12
69316;BME280;56445;43.552;5.034;2022-09-09T08:26:47;101523.16;;;38.74;24.27
69316;BME280;56445;43.552;5.034;2022-09-09T08:29:32;101492.47;;;38.65;24.13
69316;BME280;56445;43.552;5.034;2022-09-09T08:32:36;101528.84;;;38.78;24.42
69316;BME280;56445;43.552;5.034;2022-09-09T08:35:24;101517.53;;;38.74;24.19
69316;BME280;56445;43.552;5.034;2022-09-09T08:38:13;101512.72;;;38.78;24.43
69316;BME280;56445;43.552;5.034;2022-09-09T08:40:49;101528.91;;;38.81;24.29
69316;BME280;56445;43.552;5.034;2022-09-09T08:46:23;101516.03;;;38.84;24.55
69316;BME280;56445;43.552;5.034;2022-09-09T08:58:47;101534.09;;;39.13;23.97
69316;BME280;56445;43.552;5.034;2022-09-09T09:05:54;101563.38;;;39.39;24.52
69316;BME280;56445;43.552;5.034;2022-09-09T09:11:26;101560.22;;;39.44;24.14
69316;BME280;56445;43.552;5.034;2022-09-09T09:14:24;101545.59;;;39.35;24.46
69316;BME280;56445;43.552;5.034;2022-09-09T09:17:07;101552.19;;;39.50;24.09
69316;BME280;56445;43.552;5.034;2022-09-09T09:19:41;101573.31;;;39.66;24.05
69316;BME280;56445;43.552;5.034;2022-09-09T09:23:01;101557.09;;;39.56;24.06
69316;BME280;56445;43.552;5.034;2022-09-09T09:25:52;101533.28;;;39.54;24.20
69316;BME280;56445;43.552;5.034;2022-09-09T09:28:27;101546.69;;;39.64;24.08
69316;BME280;56445;43.552;5.034;2022-09-09T09:31:03;101575.06;;;39.82;24.00
69316;BME280;56445;43.552;5.034;2022-09-09T09:33:45;101567.41;;;39.86;23.78
69316;BME280;56445;43.552;5.034;2022-09-09T09:36:14;101571.88;;;39.87;23.90
69316;BME280;56445;43.552;5.034;2022-09-09T09:39:04;101579.16;;;39.88;24.23
69316;BME280;56445;43.552;5.034;2022-09-09T09:41:48;101549.19;;;39.76;23.82
69316;BME280;56445;43.552;5.034;2022-09-09T09:44:28;101570.38;;;40.00;24.35
69316;BME280;56445;43.552;5.034;2022-09-09T09:47:12;101581.25;;;39.98;24.30
69316;BME280;56445;43.552;5.034;2022-09-09T09:49:59;101568.59;;;39.85;24.10
69316;BME280;56445;43.552;5.034;2022-09-09T09:53:17;101581.19;;;39.88;24.16
69316;BME280;56445;43.552;5.034;2022-09-09T09:56:13;101583.19;;;39.87;24.00
69316;BME280;56445;43.552;5.034;2022-09-09T09:58:51;101585.63;;;39.89;23.91
69316;BME280;56445;43.552;5.034;2022-09-09T10:01:29;101580.00;;;39.92;24.02
69316;BME280;56445;43.552;5.034;2022-09-09T10:06:43;101578.78;;;40.56;23.69
69316;BME280;56445;43.552;5.034;2022-09-09T10:09:30;101554.91;;;40.46;23.99
69316;BME280;56445;43.552;5.034;2022-09-09T10:15:02;101578.13;;;40.88;23.70
69316;BME280;56445;43.552;5.034;2022-09-09T10:18:08;101591.91;;;41.07;23.68
69316;BME280;56445;43.552;5.034;2022-09-09T10:29:57;101581.09;;;41.38;23.72
69316;BME280;56445;43.552;5.034;2022-09-09T10:38:31;101556.31;;;41.10;23.68
69316;BME280;56445;43.552;5.034;2022-09-09T10:41:11;101587.47;;;41.13;23.88
69316;BME280;56445;43.552;5.034;2022-09-09T10:43:51;101583.00;;;41.05;23.51
69316;BME280;56445;43.552;5.034;2022-09-09T10:49:52;101567.50;;;40.63;23.45
69316;BME280;56445;43.552;5.034;2022-09-09T10:55:37;101558.97;;;40.56;23.51
69316;BME280;56445;43.552;5.034;2022-09-09T10:58:20;101556.22;;;40.67;23.57
69316;BME280;56445;43.552;5.034;2022-09-09T11:00:54;101568.81;;;40.76;23.29
69316;BME280;56445;43.552;5.034;2022-09-09T11:03:26;101561.84;;;40.70;23.41
69316;BME280;56445;43.552;5.034;2022-09-09T11:06:04;101574.94;;;41.11;23.35
69316;BME280;56445;43.552;5.034;2022-09-09T11:08:35;101559.66;;;41.30;23.50
69316;BME280;56445;43.552;5.034;2022-09-09T11:11:11;101556.41;;;41.71;23.32
69316;BME280;56445;43.552;5.034;2022-09-09T11:19:11;101543.34;;;44.13;22.77
69316;BME280;56445;43.552;5.034;2022-09-09T11:21:46;101543.06;;;44.69;23.13
69316;BME280;56445;43.552;5.034;2022-09-09T11:27:22;101549.31;;;46.29;23.08
69316;BME280;56445;43.552;5.034;2022-09-09T11:30:04;101544.72;;;46.15;23.21
69316;BME280;56445;43.552;5.034;2022-09-09T11:33:02;101538.69;;;46.69;22.58
69316;BME280;56445;43.552;5.034;2022-09-09T11:35:34;101541.16;;;47.04;22.85
69316;BME280;56445;43.552;5.034;2022-09-09T11:38:18;101535.75;;;47.42;22.87
69316;BME280;56445;43.552;5.034;2022-09-09T11:40:53;101514.28;;;47.67;22.54
69316;BME280;56445;43.552;5.034;2022-09-09T11:43:45;101521.38;;;47.92;22.75
69316;BME280;56445;43.552;5.034;2022-09-09T11:46:14;101509.88;;;48.08;22.65
69316;BME280;56445;43.552;5.034;2022-09-09T11:48:45;101525.41;;;48.36;22.52
69316;BME280;56445;43.552;5.034;2022-09-09T11:51:26;101512.25;;;48.39;22.50
69316;BME280;56445;43.552;5.034;2022-09-09T11:53:59;101521.53;;;48.56;22.71
69316;BME280;56445;43.552;5.034;2022-09-09T11:59:16;101516.94;;;48.58;22.44
69316;BME280;56445;43.552;5.034;2022-09-09T12:01:50;101530.53;;;48.71;22.72
69316;BME280;56445;43.552;5.034;2022-09-09T12:06:59;101536.59;;;48.73;22.54
69316;BME280;56445;43.552;5.034;2022-09-09T12:09:47;101533.38;;;48.71;22.38
69316;BME280;56445;43.552;5.034;2022-09-09T12:12:23;101536.34;;;48.67;22.35
69316;BME280;56445;43.552;5.034;2022-09-09T12:15:02;101533.38;;;48.71;21.97
69316;BME280;56445;43.552;5.034;2022-09-09T12:17:41;101534.97;;;48.72;22.07
69316;BME280;56445;43.552;5.034;2022-09-09T12:20:18;101515.16;;;48.64;21.92
69316;BME280;56445;43.552;5.034;2022-09-09T12:25:58;101544.72;;;48.74;21.83
69316;BME280;56445;43.552;5.034;2022-09-09T12:29:05;101528.91;;;48.70;22.04
69316;BME280;56445;43.552;5.034;2022-09-09T12:32:08;101508.50;;;48.55;22.20
69316;BME280;56445;43.552;5.034;2022-09-09T12:35:09;101545.84;;;48.90;21.98
69316;BME280;56445;43.552;5.034;2022-09-09T12:40:54;101546.53;;;49.19;21.81
69316;BME280;56445;43.552;5.034;2022-09-09T12:43:26;101537.59;;;49.30;21.58
69316;BME280;56445;43.552;5.034;2022-09-09T12:46:28;101530.38;;;49.38;21.88
69316;BME280;56445;43.552;5.034;2022-09-09T12:53:25;101508.91;;;49.43;21.76
69316;BME280;56445;43.552;5.034;2022-09-09T13:08:11;101484.84;;;49.75;21.21
69316;BME280;56445;43.552;5.034;2022-09-09T13:10:47;101502.56;;;50.05;21.03
69316;BME280;56445;43.552;5.034;2022-09-09T13:13:41;101514.44;;;50.16;20.66
69316;BME280;56445;43.552;5.034;2022-09-09T13:16:26;101496.81;;;50.27;20.47
69316;BME280;56445;43.552;5.034;2022-09-09T13:19:18;101514.97;;;50.02;20.33
69316;BME280;56445;43.552;5.034;2022-09-09T13:31:53;101487.31;;;47.68;20.95
69316;BME280;56445;43.552;5.034;2022-09-09T13:34:35;101493.50;;;47.34;20.79
69316;BME280;56445;43.552;5.034;2022-09-09T13:37:35;101513.41;;;47.37;20.75
69316;BME280;56445;43.552;5.034;2022-09-09T13:41:05;101495.81;;;46.89;20.93
69316;BME280;56445;43.552;5.034;2022-09-09T13:43:54;101474.84;;;46.96;20.84
69316;BME280;56445;43.552;5.034;2022-09-09T13:50:19;101460.09;;;47.14;20.62
69316;BME280;56445;43.552;5.034;2022-09-09T14:01:48;101476.38;;;47.17;20.98
69316;BME280;56445;43.552;5.034;2022-09-09T14:04:56;101451.19;;;46.79;20.94
69316;BME280;56445;43.552;5.034;2022-09-09T14:07:52;101481.59;;;46.69;20.89
69316;BME280;56445;43.552;5.034;2022-09-09T14:10:25;101485.88;;;46.61;20.54
69316;BME280;56445;43.552;5.034;2022-09-09T14:13:10;101472.50;;;46.38;20.65
69316;BME280;56445;43.552;5.034;2022-09-09T14:16:23;101452.34;;;46.09;20.66
69316;BME280;56445;43.552;5.034;2022-09-09T14:19:17;101473.75;;;46.57;20.65
69316;BME280;56445;43.552;5.034;2022-09-09T14:22:16;101477.19;;;46.85;20.58
69316;BME280;56445;43.552;5.034;2022-09-09T14:27:25;101473.22;;;47.44;20.35
69316;BME280;56445;43.552;5.034;2022-09-09T14:30:53;101481.69;;;47.64;20.08
69316;BME280;56445;43.552;5.034;2022-09-09T14:33:23;101465.78;;;47.63;20.35
69316;BME280;56445;43.552;5.034;2022-09-09T14:36:11;101477.97;;;47.80;20.17
69316;BME280;56445;43.552;5.034;2022-09-09T14:38:40;101451.88;;;47.78;20.38
69316;BME280;56445;43.552;5.034;2022-09-09T14:41:20;101476.44;;;48.05;20.14
69316;BME280;56445;43.552;5.034;2022-09-09T14:44:07;101471.78;;;48.24;20.31
69316;BME280;56445;43.552;5.034;2022-09-09T14:53:40;101471.53;;;48.73;19.65
69316;BME280;56445;43.552;5.034;2022-09-09T14:56:45;101451.53;;;48.18;19.90
69316;BME280;56445;43.552;5.034;2022-09-09T15:02:17;101443.41;;;47.75;20.03
69316;BME280;56445;43.552;5.034;2022-09-09T15:08:39;101467.59;;;47.41;19.89
69316;BME280;56445;43.552;5.034;2022-09-09T15:11:14;101484.69;;;47.28;20.26
69316;BME280;56445;43.552;5.034;2022-09-09T15:13:43;101489.66;;;47.07;19.92
69316;BME280;56445;43.552;5.034;2022-09-09T15:16:16;101474.63;;;46.70;20.04
69316;BME280;56445;43.552;5.034;2022-09-09T15:18:45;101480.59;;;46.43;20.11
69316;BME280;56445;43.552;5.034;2022-09-09T15:21:16;101472.69;;;46.11;19.97
69316;BME280;56445;43.552;5.034;2022-09-09T15:23:44;101480.56;;;45.83;20.33
69316;BME280;56445;43.552;5.034;2022-09-09T15:26:11;101475.47;;;45.51;19.80
69316;BME280;56445;43.552;5.034;2022-09-09T15:28:42;101469.66;;;45.35;19.95
69316;BME280;56445;43.552;5.034;2022-09-09T15:31:25;101458.03;;;44.98;19.93
69316;BME280;56445;43.552;5.034;2022-09-09T15:33:54;101457.66;;;44.69;19.92
69316;BME280;56445;43.552;5.034;2022-09-09T15:36:55;101465.31;;;44.48;20.42
69316;BME280;56445;43.552;5.034;2022-09-09T15:39:48;101449.56;;;44.06;20.38
69316;BME280;56445;43.552;5.034;2022-09-09T15:42:15;101450.59;;;43.88;20.12
69316;BME280;56445;43.552;5.034;2022-09-09T15:44:43;101462.84;;;43.82;20.24
69316;BME280;56445;43.552;5.034;2022-09-09T15:47:12;101457.38;;;43.60;19.94
69316;BME280;56445;43.552;5.034;2022-09-09T15:49:42;101438.06;;;43.44;20.26
69316;BME280;56445;43.552;5.034;2022-09-09T15:52:10;101457.50;;;43.49;20.51
69316;BME280;56445;43.552;5.034;2022-09-09T15:54:37;101439.81;;;43.31;20.29
69316;BME280;56445;43.552;5.034;2022-09-09T15:57:10;101459.25;;;43.32;20.58
69316;BME280;56445;43.552;5.034;2022-09-09T15:59:59;101436.78;;;43.04;20.19
69316;BME280;56445;43.552;5.034;2022-09-09T16:02:41;101430.41;;;42.89;20.63
69316;BME280;56445;43.552;5.034;2022-09-09T16:05:10;101460.34;;;42.97;20.42
69316;BME280;56445;43.552;5.034;2022-09-09T16:07:39;101442.66;;;42.71;20.12
69316;BME280;56445;43.552;5.034;2022-09-09T16:10:10;101443.59;;;42.54;20.56
69316;BME280;56445;43.552;5.034;2022-09-09T16:12:38;101449.31;;;42.43;20.22
69316;BME280;56445;43.552;5.034;2022-09-09T16:15:06;101452.97;;;42.40;20.59
69316;BME280;56445;43.552;5.034;2022-09-09T16:17:36;101463.97;;;42.34;20.45
69316;BME280;56445;43.552;5.034;2022-09-09T16:20:05;101472.06;;;42.32;20.49
69316;BME280;56445;43.552;5.034;2022-09-09T16:22:35;101466.44;;;42.25;20.27
69316;BME280;56445;43.552;5.034;2022-09-09T16:25:07;101445.03;;;42.06;20.59
69316;BME280;56445;43.552;5.034;2022-09-09T16:27:34;101461.22;;;42.06;20.60
69316;BME280;56445;43.552;5.034;2022-09-09T16:30:07;101458.00;;;42.04;20.76
69316;BME280;56445;43.552;5.034;2022-09-09T16:32:37;101455.16;;;42.04;20.47
69316;BME280;56445;43.552;5.034;2022-09-09T16:35:24;101474.94;;;42.18;20.67
69316;BME280;56445;43.552;5.034;2022-09-09T16:38:04;101438.16;;;42.04;20.47
69316;BME280;56445;43.552;5.034;2022-09-09T16:44:13;101446.72;;;41.86;20.58
69316;BME280;56445;43.552;5.034;2022-09-09T16:46:50;101445.06;;;41.88;20.67
69316;BME280;56445;43.552;5.034;2022-09-09T16:49:30;101447.09;;;41.91;20.35
69316;BME280;56445;43.552;5.034;2022-09-09T16:52:01;101450.34;;;41.86;20.78
69316;BME280;56445;43.552;5.034;2022-09-09T16:54:28;101453.16;;;41.86;20.26
69316;BME280;56445;43.552;5.034;2022-09-09T16:56:56;101478.66;;;41.90;20.58
69316;BME280;56445;43.552;5.034;2022-09-09T16:59:24;101459.69;;;41.79;21.08
69316;BME280;56445;43.552;5.034;2022-09-09T17:01:51;101459.28;;;41.77;20.92
69316;BME280;56445;43.552;5.034;2022-09-09T17:04:22;101466.56;;;41.75;20.67
69316;BME280;56445;43.552;5.034;2022-09-09T17:06:54;101451.22;;;41.65;20.72
69316;BME280;56445;43.552;5.034;2022-09-09T17:09:22;101475.47;;;41.77;20.87
69316;BME280;56445;43.552;5.034;2022-09-09T17:11:50;101447.56;;;41.57;20.89
69316;BME280;56445;43.552;5.034;2022-09-09T17:14:21;101469.81;;;41.66;20.75
69316;BME280;56445;43.552;5.034;2022-09-09T17:16:49;101461.72;;;41.57;20.77
69316;BME280;56445;43.552;5.034;2022-09-09T17:19:16;101453.22;;;41.47;20.62
69316;BME280;56445;43.552;5.034;2022-09-09T17:21:46;101484.78;;;41.59;20.87
69316;BME280;56445;43.552;5.034;2022-09-09T17:24:46;101460.53;;;41.44;20.79
69316;BME280;56445;43.552;5.034;2022-09-09T17:27:15;101480.34;;;41.48;20.79
69316;BME280;56445;43.552;5.034;2022-09-09T17:29:42;101472.66;;;41.41;20.80
69316;BME280;56445;43.552;5.034;2022-09-09T17:32:09;101464.19;;;41.30;20.47
69316;BME280;56445;43.552;5.034;2022-09-09T17:34:36;101474.69;;;41.33;21.03
69316;BME280;56445;43.552;5.034;2022-09-09T17:37:04;101466.22;;;41.26;20.99
69316;BME280;56445;43.552;5.034;2022-09-09T17:39:33;101468.63;;;41.28;20.73
69316;BME280;56445;43.552;5.034;2022-09-09T17:42:02;101462.13;;;41.13;20.69
69316;BME280;56445;43.552;5.034;2022-09-09T17:44:30;101456.06;;;41.00;20.91
69316;BME280;56445;43.552;5.034;2022-09-09T17:47:01;101471.03;;;41.04;20.77
69316;BME280;56445;43.552;5.034;2022-09-09T17:49:30;101469.38;;;40.99;21.04
69316;BME280;56445;43.552;5.034;2022-09-09T17:51:57;101457.28;;;40.99;20.88
69316;BME280;56445;43.552;5.034;2022-09-09T17:54:25;101478.31;;;41.09;21.12
69316;BME280;56445;43.552;5.034;2022-09-09T17:56:52;101457.66;;;40.97;20.93
69316;BME280;56445;43.552;5.034;2022-09-09T17:59:21;101462.94;;;40.99;21.02
69316;BME280;56445;43.552;5.034;2022-09-09T18:01:55;101469.81;;;41.05;21.10
69316;BME280;56445;43.552;5.034;2022-09-09T18:04:30;101443.13;;;40.88;21.29
69316;BME280;56445;43.552;5.034;2022-09-09T18:11:35;101424.88;;;40.71;20.93
69316;BME280;56445;43.552;5.034;2022-09-09T18:14:08;101426.09;;;40.74;20.91
69316;BME280;56445;43.552;5.034;2022-09-09T18:16:39;101411.53;;;40.64;21.16
69316;BME280;56445;43.552;5.034;2022-09-09T18:19:09;101453.22;;;40.86;21.30
69316;BME280;56445;43.552;5.034;2022-09-09T18:21:45;101426.91;;;40.67;21.17
69316;BME280;56445;43.552;5.034;2022-09-09T18:24:15;101440.22;;;40.70;20.93
69316;BME280;56445;43.552;5.034;2022-09-09T18:26:56;101457.63;;;40.76;21.40
69316;BME280;56445;43.552;5.034;2022-09-09T18:29:24;101433.34;;;40.57;21.27
69316;BME280;56445;43.552;5.034;2022-09-09T18:31:53;101457.19;;;40.63;21.09
69316;BME280;56445;43.552;5.034;2022-09-09T18:34:23;101467.31;;;40.60;21.34
69316;BME280;56445;43.552;5.034;2022-09-09T18:36:57;101471.69;;;40.54;21.20
69316;BME280;56445;43.552;5.034;2022-09-09T18:39:31;101472.47;;;40.44;21.29
69316;BME280;56445;43.552;5.034;2022-09-09T18:42:03;101491.06;;;40.41;21.23
69316;BME280;56445;43.552;5.034;2022-09-09T18:48:42;101480.03;;;40.18;21.12
69316;BME280;56445;43.552;5.034;2022-09-09T18:51:27;101505.09;;;40.23;21.10
69316;BME280;56445;43.552;5.034;2022-09-09T19:05:01;101501.59;;;39.82;21.38
69316;BME280;56445;43.552;5.034;2022-09-09T19:07:31;101534.03;;;40.02;21.67
69316;BME280;56445;43.552;5.034;2022-09-09T19:10:04;101539.66;;;39.99;21.46
69316;BME280;56445;43.552;5.034;2022-09-09T19:13:00;101564.72;;;40.00;21.37
69316;BME280;56445;43.552;5.034;2022-09-09T19:15:55;101555.81;;;39.98;21.63
69316;BME280;56445;43.552;5.034;2022-09-09T19:18:40;101556.91;;;39.86;21.57
69316;BME280;56445;43.552;5.034;2022-09-09T19:21:28;101545.13;;;39.74;21.44
69316;BME280;56445;43.552;5.034;2022-09-09T19:24:39;101555.66;;;39.80;21.65
69316;BME280;56445;43.552;5.034;2022-09-09T19:39:18;101581.13;;;39.84;21.40
69316;BME280;56445;43.552;5.034;2022-09-09T19:49:21;101574.09;;;39.60;21.39
69316;BME280;56445;43.552;5.034;2022-09-09T19:52:28;101578.91;;;39.59;21.56
69316;BME280;56445;43.552;5.034;2022-09-09T19:55:45;101603.28;;;39.78;21.30
69316;BME280;56445;43.552;5.034;2022-09-09T20:01:32;101596.28;;;39.65;21.56
69316;BME280;56445;43.552;5.034;2022-09-09T20:04:24;101612.91;;;39.70;21.50
69316;BME280;56445;43.552;5.034;2022-09-09T20:07:25;101610.84;;;39.67;21.69
69316;BME280;56445;43.552;5.034;2022-09-09T20:10:27;101577.81;;;39.34;21.77
69316;BME280;56445;43.552;5.034;2022-09-09T20:13:48;101615.91;;;39.47;21.29
69316;BME280;56445;43.552;5.034;2022-09-09T20:25:38;101597.25;;;39.39;21.41
69316;BME280;56445;43.552;5.034;2022-09-09T20:28:23;101626.53;;;39.61;21.44
69316;BME280;56445;43.552;5.034;2022-09-09T20:31:28;101619.31;;;39.67;21.81
69316;BME280;56445;43.552;5.034;2022-09-09T20:34:16;101592.19;;;39.55;21.71
69316;BME280;56445;43.552;5.034;2022-09-09T20:37:09;101612.94;;;39.77;21.73
69316;BME280;56445;43.552;5.034;2022-09-09T20:51:24;101590.19;;;39.59;21.50
69316;BME280;56445;43.552;5.034;2022-09-09T21:02:19;101600.72;;;39.62;21.39
69316;BME280;56445;43.552;5.034;2022-09-09T21:05:20;101581.19;;;39.43;21.31
